Time;durP1;ratioP1;P1;durP2;ratioP2;P2;SDS_P1;SDS_P2;PMS_P1;PMS_P2;Temp;Humidity;BMP_temperature;BMP_pressure;BME280_temperature;BME280_humidity;BME280_pressure;Samples;Min_cycle;Max_cycle;Signal;HPM_P1;HPM_P2
2023/12/18 00:01:21;;;;;;;4.57;4.03;;;;;;;4.06;100.00;100099.09;15289697;19;20015;-57
2023/12/18 00:06:48;;;;;;;4.35;3.85;;;;;;;4.11;100.00;100100.59;15296996;19;20025;-58
2023/12/18 00:12:15;;;;;;;7.32;4.40;;;;;;;4.06;100.00;100091.09;15294748;19;20332;-56
2023/12/18 00:17:40;;;;;;;5.13;3.95;;;;;;;4.03;100.00;100069.91;15294996;19;20036;-59
2023/12/18 00:23:04;;;;;;;5.03;3.97;;;;;;;3.96;100.00;100074.69;15293104;19;20025;-57
2023/12/18 00:28:32;;;;;;;5.63;4.22;;;;;;;3.92;100.00;100070.44;15295631;19;20024;-57
2023/12/18 00:33:56;;;;;;;4.60;3.75;;;;;;;3.88;100.00;100071.56;15282256;19;20027;-59
2023/12/18 00:39:22;;;;;;;5.88;3.67;;;;;;;3.81;100.00;100066.53;15295812;19;20011;-58
2023/12/18 00:44:50;;;;;;;6.78;4.03;;;;;;;3.80;100.00;100053.28;15289459;19;20025;-57
2023/12/18 00:50:15;;;;;;;5.35;3.63;;;;;;;3.80;100.00;100058.59;15294848;19;20024;-57
2023/12/18 00:55:39;;;;;;;3.85;3.28;;;;;;;3.89;100.00;100055.47;15288838;19;20098;-57
2023/12/18 01:01:07;;;;;;;3.85;2.70;;;;;;;4.06;100.00;100048.41;15291077;19;20017;-58
2023/12/18 01:06:31;;;;;;;3.13;2.42;;;;;;;4.21;100.00;100044.09;15283307;19;20023;-57
2023/12/18 01:11:56;;;;;;;3.55;2.30;;;;;;;4.41;100.00;100037.69;15290071;19;20021;-57
2023/12/18 01:17:23;;;;;;;2.95;2.30;;;;;;;4.51;100.00;100032.72;15292333;19;20018;-57
2023/12/18 01:22:53;;;;;;;3.05;2.10;;;;;;;4.59;100.00;100020.69;15290164;19;20033;-57
2023/12/18 01:28:21;;;;;;;2.78;2.30;;;;;;;4.65;100.00;100024.81;15287877;19;20025;-57
2023/12/18 01:33:49;;;;;;;2.72;1.88;;;;;;;4.91;100.00;100022.53;15285415;19;20029;-58
2023/12/18 01:39:13;;;;;;;1.88;1.73;;;;;;;5.02;100.00;100022.78;15285491;19;20026;-58
2023/12/18 01:44:38;;;;;;;2.20;1.63;;;;;;;5.10;100.00;100009.00;15286238;19;20018;-58
2023/12/18 01:50:05;;;;;;;2.55;1.70;;;;;;;5.16;100.00;100010.47;15290334;19;20097;-56
2023/12/18 01:55:30;;;;;;;2.15;1.65;;;;;;;5.13;100.00;99987.44;15286651;19;20007;-58
2023/12/18 02:00:55;;;;;;;1.92;1.55;;;;;;;5.17;100.00;99990.81;15286547;19;20019;-56
2023/12/18 02:06:16;;;;;;;2.80;1.90;;;;;;;5.11;100.00;99985.81;15287838;19;20022;-54
2023/12/18 02:11:45;;;;;;;2.83;2.08;;;;;;;5.03;100.00;99984.44;15284506;19;20017;-57
2023/12/18 02:17:09;;;;;;;3.17;1.98;;;;;;;4.93;100.00;99980.56;15288746;19;20017;-54
2023/12/18 02:22:47;;;;;;;2.95;1.85;;;;;;;4.83;100.00;99969.53;15286383;19;20020;-54
2023/12/18 02:28:13;;;;;;;2.88;1.90;;;;;;;4.76;100.00;99965.50;15286319;19;20021;-56
2023/12/18 02:33:38;;;;;;;2.85;1.92;;;;;;;4.67;100.00;99966.88;15280816;19;20024;-55
2023/12/18 02:39:06;;;;;;;2.47;2.28;;;;;;;4.55;100.00;99955.03;15281567;19;20512;-56
2023/12/18 02:44:37;;;;;;;2.58;2.17;;;;;;;4.45;100.00;99953.84;15280736;19;20018;-51
2023/12/18 02:50:02;;;;;;;3.03;2.20;;;;;;;4.36;100.00;99955.19;15288102;19;20086;-53
2023/12/18 02:55:29;;;;;;;4.00;2.20;;;;;;;4.24;100.00;99955.84;15291401;19;20026;-53
2023/12/18 03:00:54;;;;;;;2.95;2.05;;;;;;;4.18;100.00;99957.06;15303136;19;20006;-53
2023/12/18 03:06:18;;;;;;;2.10;1.70;;;;;;;4.25;100.00;99953.13;15302765;19;20007;-55
2023/12/18 03:11:47;;;;;;;2.10;1.55;;;;;;;4.38;100.00;99937.28;15300873;19;20093;-55
2023/12/18 03:17:12;;;;;;;2.50;1.80;;;;;;;4.41;100.00;99936.28;15297196;19;20081;-58
2023/12/18 03:22:37;;;;;;;1.67;1.42;;;;;;;4.41;100.00;99926.47;15298473;19;20070;-58
2023/12/18 03:28:04;;;;;;;1.33;1.23;;;;;;;4.43;100.00;99924.56;15296942;19;20481;-56
2023/12/18 03:33:29;;;;;;;1.98;1.45;;;;;;;4.47;100.00;99915.44;15294627;19;20070;-55
2023/12/18 03:38:53;;;;;;;1.48;1.38;;;;;;;4.51;100.00;99910.81;15300491;19;20042;-53
2023/12/18 03:44:21;;;;;;;1.50;1.40;;;;;;;4.54;100.00;99909.75;15291134;19;20018;-52
2023/12/18 03:49:45;;;;;;;1.77;1.38;;;;;;;4.55;100.00;99899.00;15286948;19;20011;-62
2023/12/18 03:55:10;;;;;;;1.40;1.30;;;;;;;4.61;100.00;99901.34;15282310;19;20020;-53
2023/12/18 04:00:37;;;;;;;1.45;1.30;;;;;;;4.61;100.00;99901.34;15293853;19;20118;-55
2023/12/18 04:06:02;;;;;;;1.40;1.23;;;;;;;4.62;100.00;99907.50;15290608;19;20009;-57
2023/12/18 04:11:26;;;;;;;1.50;1.40;;;;;;;4.59;100.00;99892.53;15294052;19;20021;-56
2023/12/18 04:16:54;;;;;;;1.77;1.40;;;;;;;4.56;100.00;99898.03;15296896;19;20029;-56
2023/12/18 04:22:18;;;;;;;1.40;1.30;;;;;;;4.59;100.00;99918.34;15288640;19;20042;-57
2023/12/18 04:27:44;;;;;;;1.38;1.27;;;;;;;4.57;100.00;99904.25;15295292;19;20018;-57
2023/12/18 04:33:11;;;;;;;1.73;1.40;;;;;;;4.65;100.00;99911.81;15294751;19;20028;-55
2023/12/18 04:38:37;;;;;;;1.88;1.42;;;;;;;4.68;100.00;99928.53;15295262;19;20486;-56
2023/12/18 04:44:01;;;;;;;2.33;1.20;;;;;;;4.67;100.00;99901.91;15291852;19;20028;-55
2023/12/18 04:49:29;;;;;;;2.38;1.40;;;;;;;4.59;100.00;99887.22;15295356;19;20017;-57
2023/12/18 04:54:53;;;;;;;1.48;1.38;;;;;;;4.55;100.00;99907.00;15286357;19;21049;-54
2023/12/18 05:00:18;;;;;;;1.70;1.30;;;;;;;4.48;100.00;99900.28;15293962;19;20471;-55
2023/12/18 05:05:46;;;;;;;1.77;1.50;;;;;;;4.36;100.00;99898.31;15289143;19;20025;-57
2023/12/18 05:11:11;;;;;;;1.58;1.38;;;;;;;4.27;100.00;99905.88;15293074;19;20028;-55
2023/12/18 05:16:35;;;;;;;2.38;1.35;;;;;;;4.22;100.00;99893.75;15292175;19;20093;-58
2023/12/18 05:22:03;;;;;;;1.77;1.40;;;;;;;4.19;100.00;99877.91;15290621;19;20491;-53
2023/12/18 05:27:27;;;;;;;2.20;1.67;;;;;;;4.14;100.00;99873.66;15288983;19;20638;-56
2023/12/18 05:32:52;;;;;;;1.30;1.20;;;;;;;4.12;100.00;99872.03;15291050;19;20010;-55
2023/12/18 05:38:19;;;;;;;1.85;1.50;;;;;;;4.15;100.00;99887.88;15284988;19;20022;-58
2023/12/18 05:43:44;;;;;;;1.77;1.45;;;;;;;4.18;100.00;99902.84;15288301;19;20021;-54
2023/12/18 05:49:08;;;;;;;1.40;1.30;;;;;;;4.23;100.00;99903.47;15290273;19;20353;-53
2023/12/18 05:54:37;;;;;;;1.33;1.23;;;;;;;4.21;100.00;99903.53;15286942;19;20010;-55
2023/12/18 06:00:01;;;;;;;1.52;1.38;;;;;;;4.22;100.00;99893.75;15288379;19;20015;-55
2023/12/18 06:05:26;;;;;;;1.80;1.40;;;;;;;4.21;100.00;99884.88;15285598;19;20821;-56
2023/12/18 06:10:53;;;;;;;1.45;1.35;;;;;;;4.26;100.00;99889.94;15288231;19;20497;-56
2023/12/18 06:16:18;;;;;;;1.48;1.38;;;;;;;4.30;100.00;99887.00;15288122;19;20018;-55
2023/12/18 06:21:49;;;;;;;1.23;1.10;;;;;;;4.30;100.00;99899.50;15287335;19;20377;-57
2023/12/18 06:27:17;;;;;;;1.50;1.40;;;;;;;4.29;100.00;99887.97;15288339;19;20015;-56
2023/12/18 06:32:35;;;;;;;1.58;1.48;;;;;;;4.17;100.00;99886.00;15302300;19;20410;-56
2023/12/18 06:38:00;;;;;;;1.48;1.38;;;;;;;4.08;100.00;99887.34;15304520;19;20017;-55
2023/12/18 06:43:28;;;;;;;1.40;1.30;;;;;;;3.99;100.00;99880.72;15296944;19;20032;-54
2023/12/18 06:48:52;;;;;;;1.45;1.30;;;;;;;4.01;100.00;99884.16;15303646;19;20014;-57
2023/12/18 06:54:17;;;;;;;1.85;1.30;;;;;;;4.11;100.00;99895.19;15299438;19;20014;-55
2023/12/18 06:59:44;;;;;;;2.28;1.33;;;;;;;4.06;100.00;99888.38;15299798;19;20057;-54
2023/12/18 07:05:10;;;;;;;1.40;1.30;;;;;;;4.07;100.00;99911.41;15296912;19;20010;-54
2023/12/18 07:10:34;;;;;;;1.20;1.10;;;;;;;4.11;100.00;99896.97;15300634;19;20070;-56
2023/12/18 07:16:02;;;;;;;1.40;1.30;;;;;;;4.21;100.00;99913.38;15293961;19;20025;-57
2023/12/18 07:21:26;;;;;;;1.55;1.30;;;;;;;4.32;100.00;99914.47;15298585;19;20081;-57
2023/12/18 07:26:51;;;;;;;1.50;1.40;;;;;;;4.37;100.00;99898.22;15300360;19;20025;-57
2023/12/18 07:32:18;;;;;;;2.55;1.50;;;;;;;4.38;100.00;99907.94;15295293;19;20010;-56
2023/12/18 07:37:43;;;;;;;1.73;1.50;;;;;;;4.38;100.00;99917.78;15299292;19;20020;-55
2023/12/18 07:43:07;;;;;;;2.28;1.70;;;;;;;4.42;100.00;99912.16;15296834;19;20018;-56
2023/12/18 07:48:35;;;;;;;2.72;1.67;;;;;;;4.40;100.00;99913.22;15300757;19;20019;-57
2023/12/18 07:53:59;;;;;;;1.83;1.70;;;;;;;4.40;100.00;99914.06;15295301;19;20519;-57
2023/12/18 07:59:24;;;;;;;1.85;1.75;;;;;;;4.43;100.00;99908.56;15300292;19;20407;-57
2023/12/18 08:04:52;;;;;;;2.83;1.80;;;;;;;4.47;100.00;99894.06;15289154;19;20021;-56
2023/12/18 08:10:17;;;;;;;2.00;1.80;;;;;;;4.52;100.00;99904.53;15298537;19;20693;-54
2023/12/18 08:15:41;;;;;;;2.17;1.98;;;;;;;4.55;100.00;99895.47;15293532;19;20447;-56
2023/12/18 08:21:14;;;;;;;2.88;2.00;;;;;;;4.57;100.00;99893.59;15297132;19;20038;-55
2023/12/18 08:26:39;;;;;;;2.10;1.90;;;;;;;4.59;100.00;99889.00;15296544;19;20018;-57
2023/12/18 08:32:04;;;;;;;2.30;1.85;;;;;;;4.61;100.00;99896.00;15295253;19;20021;-55
2023/12/18 08:37:31;;;;;;;2.08;1.88;;;;;;;4.62;100.00;99897.72;15289687;19;20018;-57
2023/12/18 08:42:56;;;;;;;2.47;1.85;;;;;;;4.70;100.00;99899.06;15293720;19;20031;-55
2023/12/18 08:48:20;;;;;;;1.85;1.75;;;;;;;4.79;100.00;99890.53;15294856;19;20106;-55
2023/12/18 08:53:48;;;;;;;2.08;1.88;;;;;;;4.88;100.00;99892.66;15290243;19;20039;-54
2023/12/18 08:59:13;;;;;;;1.77;1.67;;;;;;;5.00;100.00;99884.94;15294045;19;20501;-54
2023/12/18 09:04:39;;;;;;;1.77;1.67;;;;;;;5.13;100.00;99891.25;15291275;19;20018;-56
2023/12/18 09:10:07;;;;;;;1.83;1.70;;;;;;;5.21;100.00;99888.13;15290220;19;20081;-57
2023/12/18 09:15:31;;;;;;;1.63;1.50;;;;;;;5.32;100.00;99879.47;15289547;19;20011;-53
2023/12/18 09:20:56;;;;;;;3.53;1.80;;;;;;;5.40;100.00;99877.19;15291759;19;20019;-53
2023/12/18 09:26:23;;;;;;;1.88;1.67;;;;;;;5.49;100.00;99873.13;15284161;19;20016;-55
2023/12/18 09:31:48;;;;;;;1.80;1.50;;;;;;;5.57;100.00;99870.00;15289367;19;20554;-55
2023/12/18 09:37:12;;;;;;;1.75;1.65;;;;;;;5.62;100.00;99855.38;15290880;19;20478;-54
2023/12/18 09:42:40;;;;;;;1.60;1.50;;;;;;;5.71;100.00;99860.16;15285760;19;20547;-54
2023/12/18 09:48:12;;;;;;;2.05;1.63;;;;;;;5.81;100.00;99854.22;15290892;19;20367;-54
2023/12/18 09:53:37;;;;;;;1.65;1.55;;;;;;;5.91;100.00;99866.06;15289691;19;20018;-56
2023/12/18 09:59:10;;;;;;;2.22;1.60;;;;;;;5.97;100.00;99854.13;15290019;19;20015;-54
2023/12/18 10:04:35;;;;;;;1.70;1.60;;;;;;;6.09;100.00;99852.53;15285125;19;20010;-56
2023/12/18 10:10:00;;;;;;;1.83;1.70;;;;;;;6.20;100.00;99841.13;15288985;19;20021;-58
2023/12/18 10:15:35;;;;;;;1.67;1.58;;;;;;;6.31;100.00;99835.94;15281983;19;20059;-56
2023/12/18 10:21:01;;;;;;;2.10;1.70;;;;;;;6.44;100.00;99822.66;15289837;19;20375;-58
2023/12/18 10:26:26;;;;;;;1.67;1.50;;;;;;;6.51;100.00;99815.06;15285286;19;20482;-57
2023/12/18 10:31:54;;;;;;;1.80;1.60;;;;;;;6.60;100.00;99812.63;15287803;19;20467;-56
2023/12/18 10:37:20;;;;;;;1.70;1.50;;;;;;;6.69;100.00;99808.50;15288593;19;20105;-58
2023/12/18 10:42:48;;;;;;;1.50;1.40;;;;;;;6.78;100.00;99783.75;15286832;19;20089;-57
2023/12/18 10:48:25;;;;;;;2.28;1.50;;;;;;;6.86;100.00;99785.09;15283848;19;20021;-58
2023/12/18 10:53:51;;;;;;;1.85;1.60;;;;;;;6.98;100.00;99780.69;15284851;19;20531;-57
2023/12/18 10:59:16;;;;;;;1.60;1.40;;;;;;;7.09;100.00;99772.78;15286982;19;20018;-56
2023/12/18 11:04:44;;;;;;;1.50;1.40;;;;;;;7.20;100.00;99758.63;15283668;19;20017;-54
2023/12/18 11:10:10;;;;;;;1.90;1.33;;;;;;;7.31;100.00;99750.72;15286400;19;20341;-54
2023/12/18 11:15:41;;;;;;;1.60;1.50;;;;;;;7.38;100.00;99746.63;15287323;19;20025;-56
2023/12/18 11:21:09;;;;;;;1.92;1.40;;;;;;;7.46;100.00;99748.75;15296488;19;20011;-55
2023/12/18 11:26:34;;;;;;;2.42;1.17;;;;;;;7.59;100.00;99732.66;15295698;19;20017;-56
2023/12/18 11:32:02;;;;;;;1.40;1.30;;;;;;;7.71;100.00;99720.19;15299221;19;20022;-54
2023/12/18 11:37:29;;;;;;;1.30;1.10;;;;;;;7.82;100.00;99716.75;15299386;19;20082;-56
2023/12/18 11:42:55;;;;;;;1.33;1.13;;;;;;;7.94;100.00;99705.09;15296882;19;20014;-57
2023/12/18 11:48:27;;;;;;;1.52;1.20;;;;;;;8.08;100.00;99700.53;15299732;19;20022;-55
2023/12/18 11:54:00;;;;;;;1.88;1.10;;;;;;;8.22;100.00;99686.94;15291689;19;20050;-55
2023/12/18 11:59:25;;;;;;;1.73;0.95;;;;;;;8.32;100.00;99676.38;15298292;19;20017;-56
2023/12/18 12:04:49;;;;;;;0.90;0.90;;;;;;;8.42;100.00;99666.66;15294781;19;20015;-55
2023/12/18 12:10:17;;;;;;;1.50;1.10;;;;;;;8.51;100.00;99662.44;15298324;19;20010;-55
2023/12/18 12:15:41;;;;;;;1.50;1.00;;;;;;;8.59;100.00;99651.94;15293115;19;20017;-58
2023/12/18 12:21:14;;;;;;;2.28;1.10;;;;;;;8.69;100.00;99640.47;15296908;19;20025;-58
2023/12/18 12:26:43;;;;;;;2.35;0.90;;;;;;;8.81;100.00;99636.00;15289968;19;20025;-52
2023/12/18 12:32:08;;;;;;;2.13;1.10;;;;;;;8.92;100.00;99650.28;15297014;19;20017;-51
2023/12/18 12:37:33;;;;;;;1.27;0.90;;;;;;;9.04;100.00;99644.94;15297100;19;20053;-54
2023/12/18 12:43:01;;;;;;;1.08;0.95;;;;;;;9.15;100.00;99636.88;15295572;19;20006;-51
2023/12/18 12:48:32;;;;;;;1.85;1.00;;;;;;;9.28;100.00;99627.81;15298309;19;20014;-55
2023/12/18 12:53:56;;;;;;;2.13;0.83;;;;;;;9.36;100.00;99623.53;15293288;19;20089;-58
2023/12/18 12:59:25;;;;;;;0.98;0.70;;;;;;;9.47;100.00;99614.59;15292367;19;20352;-55
2023/12/18 13:04:50;;;;;;;1.60;0.82;;;;;;;9.61;100.00;99612.59;15291896;19;20022;-54
2023/12/18 13:10:17;;;;;;;0.80;0.80;;;;;;;9.76;100.00;99614.03;15294570;19;20478;-53
2023/12/18 13:15:44;;;;;;;1.42;0.80;;;;;;;9.90;100.00;99606.66;15291581;19;20014;-55
2023/12/18 13:21:09;;;;;;;0.90;0.80;;;;;;;10.00;100.00;99594.13;15293215;19;20025;-53
2023/12/18 13:26:33;;;;;;;1.13;0.80;;;;;;;10.07;100.00;99587.25;15290944;19;20018;-54
2023/12/18 13:32:01;;;;;;;1.90;0.77;;;;;;;10.15;100.00;99581.22;15293121;19;20024;-53
2023/12/18 13:37:25;;;;;;;0.70;0.70;;;;;;;10.21;100.00;99575.31;15291213;19;20018;-53
2023/12/18 13:42:50;;;;;;;1.33;0.80;;;;;;;10.28;100.00;99576.50;15288437;19;20480;-54
2023/12/18 13:48:25;;;;;;;0.70;0.70;;;;;;;10.30;100.00;99568.28;15289552;19;20025;-53
2023/12/18 13:53:49;;;;;;;0.85;0.70;;;;;;;10.38;100.00;99565.84;15292049;19;20070;-57
2023/12/18 13:59:14;;;;;;;0.98;0.90;;;;;;;10.46;100.00;99565.19;15288165;19;20357;-56
2023/12/18 14:04:41;;;;;;;0.90;0.75;;;;;;;10.49;100.00;99551.41;15288968;19;20018;-58
2023/12/18 14:10:07;;;;;;;0.80;0.80;;;;;;;10.55;100.00;99560.81;15291460;19;20772;-55
2023/12/18 14:15:32;;;;;;;1.00;0.90;;;;;;;10.36;100.00;99554.31;15285343;19;20384;-52
2023/12/18 14:21:00;;;;;;;1.95;1.00;;;;;;;10.26;100.00;99545.31;15288448;19;20046;-55
2023/12/18 14:26:24;;;;;;;0.95;0.90;;;;;;;10.27;100.00;99538.94;15287889;19;20023;-54
2023/12/18 14:31:49;;;;;;;1.23;1.00;;;;;;;10.18;100.00;99537.88;15285461;19;20015;-53
2023/12/18 14:37:17;;;;;;;2.63;1.00;;;;;;;10.03;100.00;99546.28;15289102;19;20021;-54
2023/12/18 14:42:43;;;;;;;2.53;1.30;;;;;;;9.90;100.00;99533.97;15286577;19;20018;-52
2023/12/18 14:48:09;;;;;;;1.23;1.00;;;;;;;9.56;100.00;99535.84;15283753;19;20798;-54
2023/12/18 14:53:45;;;;;;;1.10;1.00;;;;;;;9.21;100.00;99534.22;15300750;19;20074;-53
2023/12/18 14:59:10;;;;;;;1.88;0.88;;;;;;;8.82;100.00;99539.13;15302445;19;20094;-57
2023/12/18 15:04:35;;;;;;;2.17;0.93;;;;;;;8.60;100.00;99538.16;15294778;19;20025;-55
2023/12/18 15:10:04;;;;;;;1.30;0.90;;;;;;;8.40;100.00;99537.00;15299296;19;20018;-56
2023/12/18 15:15:29;;;;;;;0.90;0.90;;;;;;;8.16;100.00;99535.25;15296100;19;20025;-57
2023/12/18 15:20:56;;;;;;;0.80;0.80;;;;;;;7.89;100.00;99532.84;15302142;19;20085;-54
2023/12/18 15:26:23;;;;;;;3.15;1.10;;;;;;;7.66;100.00;99530.06;15297879;19;20029;-53
2023/12/18 15:31:47;;;;;;;1.50;1.00;;;;;;;7.55;100.00;99527.34;15299755;19;20078;-52
2023/12/18 15:37:13;;;;;;;1.98;1.10;;;;;;;7.44;100.00;99516.56;15290154;19;20015;-51
2023/12/18 15:42:40;;;;;;;1.10;1.00;;;;;;;7.33;100.00;99525.38;15297197;19;20022;-54
2023/12/18 15:48:13;;;;;;;1.67;1.13;;;;;;;7.21;100.00;99527.16;15292637;19;20491;-51
2023/12/18 15:53:39;;;;;;;6.38;1.10;;;;;;;7.01;100.00;99521.41;15290333;19;20029;-52
2023/12/18 15:59:06;;;;;;;2.35;1.35;;;;;;;6.75;100.00;99523.31;15297234;19;20018;-54
2023/12/18 16:04:30;;;;;;;1.73;1.10;;;;;;;6.53;100.00;99519.47;15288979;19;20034;-56
2023/12/18 16:09:55;;;;;;;1.67;1.30;;;;;;;6.40;100.00;99511.47;15289309;19;20493;-56
2023/12/18 16:15:23;;;;;;;2.28;1.60;;;;;;;6.31;100.00;99504.06;15284188;19;20019;-54
2023/12/18 16:20:49;;;;;;;2.45;1.30;;;;;;;6.26;100.00;99507.06;15295065;19;20363;-56
2023/12/18 16:26:14;;;;;;;2.10;1.90;;;;;;;6.33;100.00;99488.75;15292821;19;20354;-56
2023/12/18 16:31:45;;;;;;;3.25;2.60;;;;;;;6.41;100.00;99489.06;15293128;19;20040;-57
2023/12/18 16:37:11;;;;;;;2.53;1.45;;;;;;;6.53;100.00;99499.84;15292141;19;20093;-54
2023/12/18 16:42:37;;;;;;;2.28;1.58;;;;;;;6.47;100.00;99501.16;15288013;19;20018;-55
2023/12/18 16:48:12;;;;;;;1.55;1.23;;;;;;;6.37;100.00;99495.59;15290576;19;20082;-56
2023/12/18 16:53:36;;;;;;;1.27;1.17;;;;;;;6.44;100.00;99493.34;15289909;19;20018;-53
2023/12/18 16:59:01;;;;;;;1.50;1.40;;;;;;;6.42;100.00;99490.78;15294392;19;20010;-53
2023/12/18 17:04:29;;;;;;;2.45;1.80;;;;;;;6.38;100.00;99494.66;14781227;19;10000298;-54
2023/12/18 17:09:56;;;;;;;2.75;1.65;;;;;;;6.34;100.00;99492.31;15291962;19;20585;-54
2023/12/18 17:15:28;;;;;;;1.75;1.60;;;;;;;6.19;100.00;99478.16;15278742;19;20022;-56
2023/12/18 17:20:57;;;;;;;1.52;1.42;;;;;;;6.16;100.00;99474.75;15288991;19;20015;-52
2023/12/18 17:26:23;;;;;;;2.00;1.80;;;;;;;6.20;100.00;99471.84;15285939;19;20376;-54
2023/12/18 17:31:48;;;;;;;2.42;1.52;;;;;;;6.23;100.00;99480.53;15289651;19;20014;-52
2023/12/18 17:37:16;;;;;;;2.10;1.20;;;;;;;6.23;100.00;99479.66;15285343;19;20565;-55
2023/12/18 17:42:40;;;;;;;1.83;1.52;;;;;;;6.13;100.00;99469.59;15288670;19;20070;-53
2023/12/18 17:48:05;;;;;;;1.50;1.35;;;;;;;6.08;100.00;99471.72;15280821;19;20415;-54
2023/12/18 17:53:32;;;;;;;1.73;1.45;;;;;;;6.06;100.00;99459.44;15285349;19;20042;-55
2023/12/18 17:58:57;;;;;;;2.85;1.60;;;;;;;5.90;100.00;99448.91;15288126;19;20017;-56
2023/12/18 18:04:22;;;;;;;3.35;1.60;;;;;;;5.76;100.00;99453.38;15282808;19;20014;-51
2023/12/18 18:09:49;;;;;;;1.95;1.75;;;;;;;5.62;100.00;99442.78;15286188;19;20018;-51
2023/12/18 18:15:15;;;;;;;2.45;1.65;;;;;;;5.51;100.00;99436.34;15284089;19;20019;-51
2023/12/18 18:20:41;;;;;;;4.35;3.65;;;;;;;5.44;100.00;99418.16;15278688;19;20038;-53
2023/12/18 18:26:08;;;;;;;1.90;1.70;;;;;;;5.42;100.00;99430.75;15299355;19;20026;-52
2023/12/18 18:31:32;;;;;;;1.67;1.58;;;;;;;5.33;100.00;99422.41;15316857;19;20035;-55
2023/12/18 18:36:57;;;;;;;1.88;1.60;;;;;;;5.31;100.00;99424.31;15314747;19;20057;-50
2023/12/18 18:42:24;;;;;;;1.90;1.58;;;;;;;5.31;100.00;99424.31;15309446;19;20081;-55
2023/12/18 18:47:56;;;;;;;1.70;1.60;;;;;;;5.18;100.00;99428.75;15308458;19;20017;-50
2023/12/18 18:53:20;;;;;;;2.13;1.73;;;;;;;5.12;100.00;99424.69;15308534;19;20081;-54
2023/12/18 18:58:48;;;;;;;1.70;1.60;;;;;;;5.05;100.00;99434.06;15314349;19;20258;-51
2023/12/18 19:04:14;;;;;;;2.30;1.65;;;;;;;4.94;100.00;99443.66;15309534;19;20029;-54
2023/12/18 19:09:39;;;;;;;2.22;1.70;;;;;;;4.93;100.00;99441.09;15304791;19;20016;-52
2023/12/18 19:15:07;;;;;;;2.20;1.80;;;;;;;4.93;100.00;99441.94;15310358;19;20050;-54
2023/12/18 19:20:34;;;;;;;2.35;1.98;;;;;;;4.96;100.00;99432.84;15313684;19;20475;-50
2023/12/18 19:25:59;;;;;;;1.52;1.30;;;;;;;4.90;100.00;99430.59;15302942;19;20028;-56
2023/12/18 19:31:27;;;;;;;1.52;1.42;;;;;;;4.96;100.00;99446.22;15313351;19;20074;-53
2023/12/18 19:36:54;;;;;;;1.65;1.50;;;;;;;4.89;100.00;99428.88;15304487;19;20085;-53
2023/12/18 19:42:18;;;;;;;2.33;1.65;;;;;;;4.91;100.00;99410.94;15295929;19;20010;-51
2023/12/18 19:47:52;;;;;;;2.10;1.80;;;;;;;4.90;100.00;99409.22;15293557;19;20018;-54
2023/12/18 19:53:16;;;;;;;2.25;1.85;;;;;;;4.77;100.00;99390.47;15294168;19;20550;-51
2023/12/18 19:58:41;;;;;;;2.67;2.13;;;;;;;4.71;100.00;99383.72;15289237;19;20022;-50
2023/12/18 20:04:09;;;;;;;3.25;2.00;;;;;;;4.63;100.00;99386.03;15293018;19;20015;-54
2023/12/18 20:09:34;;;;;;;1.92;1.70;;;;;;;4.56;100.00;99390.06;15291881;19;20022;-50
2023/12/18 20:14:58;;;;;;;1.83;1.73;;;;;;;4.56;100.00;99382.91;15270691;19;20116;-50
2023/12/18 20:20:26;;;;;;;2.03;1.60;;;;;;;4.60;100.00;99397.78;15298687;19;21844;-50
2023/12/18 20:25:51;;;;;;;1.83;1.63;;;;;;;4.62;100.00;99401.22;15291665;19;20077;-55
2023/12/18 20:31:16;;;;;;;1.88;1.40;;;;;;;4.75;100.00;99401.25;15290964;19;20698;-53
2023/12/18 20:36:43;;;;;;;1.42;1.33;;;;;;;4.85;100.00;99412.22;15293313;19;20029;-53
2023/12/18 20:42:08;;;;;;;2.50;1.45;;;;;;;5.00;100.00;99410.34;15294346;19;20010;-53
2023/12/18 20:47:39;;;;;;;1.73;1.50;;;;;;;4.98;100.00;99380.19;15286575;19;20015;-55
2023/12/18 20:53:06;;;;;;;1.70;1.50;;;;;;;5.03;100.00;99382.56;15291881;19;20014;-56
2023/12/18 20:58:32;;;;;;;2.30;2.10;;;;;;;5.10;100.00;99375.88;15293997;19;20255;-53
2023/12/18 21:03:58;;;;;;;2.30;2.00;;;;;;;5.15;100.00;99349.69;15290920;19;20538;-54
2023/12/18 21:09:26;;;;;;;3.92;2.20;;;;;;;5.15;100.00;99336.31;15291504;19;20033;-50
2023/12/18 21:14:51;;;;;;;2.95;1.90;;;;;;;5.15;100.00;99322.97;15290122;19;20078;-52
2023/12/18 21:20:18;;;;;;;2.10;1.90;;;;;;;5.14;100.00;99307.91;15292950;19;20448;-50
2023/12/18 21:25:45;;;;;;;1.85;1.50;;;;;;;5.16;100.00;99297.13;15288700;19;20016;-52
2023/12/18 21:31:10;;;;;;;1.95;1.70;;;;;;;5.29;100.00;99316.72;15287729;19;20011;-52
2023/12/18 21:36:36;;;;;;;1.98;1.40;;;;;;;5.32;100.00;99315.63;15289448;19;20020;-55
2023/12/18 21:42:04;;;;;;;1.92;1.60;;;;;;;5.34;100.00;99311.88;15289939;19;20018;-53
2023/12/18 21:47:39;;;;;;;1.50;1.40;;;;;;;5.32;100.00;99315.63;15285428;19;20037;-55
2023/12/18 21:53:04;;;;;;;2.13;1.63;;;;;;;5.27;100.00;99291.03;15289309;19;20022;-54
2023/12/18 21:58:31;;;;;;;1.67;1.58;;;;;;;5.21;100.00;99285.16;15289755;19;20024;-50
2023/12/18 22:04:04;;;;;;;2.03;1.73;;;;;;;5.24;100.00;99294.78;15274676;19;20018;-73
2023/12/18 22:09:29;;;;;;;2.20;1.50;;;;;;;5.25;100.00;99292.00;15284555;19;20027;-76
2023/12/18 22:14:56;;;;;;;2.25;1.67;;;;;;;5.24;100.00;99303.63;15286653;19;20620;-76
2023/12/18 22:20:23;;;;;;;1.40;1.30;;;;;;;5.26;100.00;99276.84;15286511;19;20070;-76
2023/12/18 22:25:47;;;;;;;2.53;1.50;;;;;;;5.24;100.00;99276.91;15287536;19;20014;-76
2023/12/18 22:31:15;;;;;;;1.88;1.73;;;;;;;5.24;100.00;99252.88;15286878;19;20683;-76
2023/12/18 22:36:39;;;;;;;1.92;1.50;;;;;;;5.20;100.00;99242.50;15284364;19;20018;-77
2023/12/18 22:42:04;;;;;;;1.70;1.40;;;;;;;5.35;100.00;99248.63;15289213;19;20049;-77
2023/12/18 22:47:32;;;;;;;2.10;1.40;;;;;;;5.59;100.00;99245.16;15285749;19;20469;-77
2023/12/18 22:52:59;;;;;;;1.45;1.33;;;;;;;5.73;100.00;99242.34;15301219;19;20549;-76
2023/12/18 22:58:28;;;;;;;1.70;1.33;;;;;;;5.63;100.00;99235.97;15285800;19;20154;-77
2023/12/18 23:03:57;;;;;;;1.50;1.40;;;;;;;5.52;100.00;99218.03;15282796;19;20021;-76
2023/12/18 23:09:22;;;;;;;2.10;1.48;;;;;;;5.49;100.00;99219.09;15276999;19;20018;-76
2023/12/18 23:14:47;;;;;;;1.63;1.50;;;;;;;5.51;100.00;99198.44;15301001;19;20006;-77
2023/12/18 23:20:15;;;;;;;2.53;1.45;;;;;;;5.47;100.00;99199.63;15302092;19;20021;-77
2023/12/18 23:25:40;;;;;;;1.70;1.60;;;;;;;5.39;100.00;99191.31;15297509;19;20419;-77
2023/12/18 23:31:04;;;;;;;1.65;1.55;;;;;;;5.42;100.00;99212.47;15293145;19;20094;-78
2023/12/18 23:36:31;;;;;;;1.52;1.42;;;;;;;5.50;100.00;99194.06;15295889;19;20033;-77
2023/12/18 23:41:56;;;;;;;1.85;1.48;;;;;;;5.50;100.00;99194.06;15296687;19;20352;-77
2023/12/18 23:47:27;;;;;;;2.08;1.50;;;;;;;5.50;100.00;99180.69;15302411;19;20007;-77
2023/12/18 23:52:55;;;;;;;1.50;1.40;;;;;;;5.46;100.00;99160.53;15295313;19;20018;-74
2023/12/18 23:58:20;;;;;;;1.65;1.50;;;;;;;5.50;100.00;99183.38;15292833;19;20090;-74
